createdAt,value
2017-10-22T00:01:49.132Z,13.03
2017-10-22T00:04:22.004Z,13.00
2017-10-22T00:06:53.661Z,13.01
2017-10-22T00:09:26.425Z,13.00
2017-10-22T00:11:57.765Z,12.99
2017-10-22T00:14:29.700Z,12.99
2017-10-22T00:17:01.891Z,12.98
2017-10-22T00:19:33.469Z,12.96
2017-10-22T00:22:05.984Z,12.96
2017-10-22T00:24:37.321Z,12.97
2017-10-22T00:27:08.903Z,12.96
2017-10-22T00:29:40.284Z,12.95
2017-10-22T00:32:11.636Z,12.96
2017-10-22T00:34:43.023Z,12.94
2017-10-22T00:37:14.655Z,12.94
2017-10-22T00:39:46.677Z,12.94
2017-10-22T00:42:19.855Z,12.86
2017-10-22T00:44:51.654Z,12.79
2017-10-22T00:47:24.205Z,12.77
2017-10-22T00:49:55.824Z,12.69
2017-10-22T00:52:27.197Z,12.65
2017-10-22T00:54:58.569Z,12.59
2017-10-22T00:57:30.244Z,12.60
2017-10-22T01:00:03.516Z,12.67
2017-10-22T01:02:35.133Z,12.76
2017-10-22T01:05:06.453Z,12.83
2017-10-22T01:07:37.787Z,12.79
2017-10-22T01:10:09.443Z,12.77
2017-10-22T01:12:40.844Z,12.77
2017-10-22T01:15:12.248Z,12.81
2017-10-22T01:17:43.859Z,12.84
2017-10-22T01:20:15.409Z,12.87
2017-10-22T01:22:47.052Z,12.84
2017-10-22T01:25:19.080Z,12.85
2017-10-22T01:27:50.740Z,12.80
2017-10-22T01:30:23.076Z,12.73
2017-10-22T01:32:54.399Z,12.60
2017-10-22T01:35:26.133Z,12.49
2017-10-22T01:37:57.499Z,12.41
2017-10-22T01:40:29.432Z,12.37
2017-10-22T01:43:01.007Z,12.37
2017-10-22T01:45:32.373Z,12.32
2017-10-22T01:48:05.181Z,12.29
2017-10-22T01:50:36.550Z,12.25
2017-10-22T01:53:08.042Z,12.24
2017-10-22T01:55:39.753Z,12.26
2017-10-22T01:58:11.167Z,12.21
2017-10-22T02:00:42.811Z,12.14
2017-10-22T02:03:14.173Z,12.12
2017-10-22T02:05:45.515Z,12.14
2017-10-22T02:08:17.496Z,12.13
2017-10-22T02:10:48.934Z,12.14
2017-10-22T02:13:23.036Z,12.11
2017-10-22T02:15:54.752Z,12.08
2017-10-22T02:18:26.056Z,12.05
2017-10-22T02:20:58.543Z,12.09
2017-10-22T02:23:30.160Z,12.15
2017-10-22T02:26:02.625Z,12.19
2017-10-22T02:28:33.963Z,12.25
2017-10-22T02:31:05.911Z,12.31
2017-10-22T02:33:38.803Z,12.37
2017-10-22T02:36:10.437Z,12.40
2017-10-22T02:38:42.074Z,12.40
2017-10-22T02:41:13.471Z,12.43
2017-10-22T02:43:44.842Z,12.48
2017-10-22T02:46:16.224Z,12.49
2017-10-22T02:48:47.871Z,12.52
2017-10-22T02:51:21.543Z,12.53
2017-10-22T02:53:52.913Z,12.53
2017-10-22T02:56:24.914Z,12.53
2017-10-22T02:58:56.397Z,12.48
2017-10-22T03:01:28.071Z,12.45
2017-10-22T03:03:59.447Z,12.49
2017-10-22T03:06:31.675Z,12.51
2017-10-22T03:09:08.168Z,12.56
2017-10-22T03:11:39.672Z,12.57
2017-10-22T03:14:11.042Z,12.59
2017-10-22T03:16:43.696Z,12.63
2017-10-22T03:19:15.044Z,12.64
2017-10-22T03:21:46.916Z,12.60
2017-10-22T03:24:21.102Z,12.54
2017-10-22T03:26:52.519Z,12.45
2017-10-22T03:29:26.211Z,12.40
2017-10-22T03:31:57.783Z,12.28
2017-10-22T03:34:29.384Z,12.16
2017-10-22T03:37:01.048Z,12.12
2017-10-22T03:39:32.446Z,12.07
2017-10-22T03:42:04.779Z,12.05
2017-10-22T03:44:36.121Z,11.99
2017-10-22T03:47:07.723Z,11.92
2017-10-22T03:49:39.196Z,11.90
2017-10-22T03:52:10.598Z,11.86
2017-10-22T03:54:42.196Z,11.80
2017-10-22T03:57:13.772Z,11.76
2017-10-22T03:59:45.072Z,11.71
2017-10-22T04:02:16.886Z,11.75
2017-10-22T04:04:48.210Z,11.82
2017-10-22T04:07:20.585Z,11.89
2017-10-22T04:09:52.276Z,11.93
2017-10-22T04:12:28.536Z,11.93
2017-10-22T04:14:59.990Z,11.92
2017-10-22T04:17:31.491Z,11.92
2017-10-22T04:20:04.840Z,11.93
2017-10-22T04:22:36.619Z,11.88
2017-10-22T04:25:08.231Z,11.86
2017-10-22T04:27:40.734Z,11.80
2017-10-22T04:30:12.457Z,11.72
2017-10-22T04:32:43.830Z,11.63
2017-10-22T04:35:15.911Z,11.60
2017-10-22T04:37:47.633Z,11.62
2017-10-22T04:40:19.676Z,11.71
2017-10-22T04:42:51.053Z,11.72
2017-10-22T04:45:24.691Z,11.69
2017-10-22T04:47:56.205Z,11.69
2017-10-22T04:50:28.005Z,11.71
2017-10-22T04:52:59.351Z,11.70
2017-10-22T04:55:30.668Z,11.71
2017-10-22T04:58:03.670Z,11.68
2017-10-22T05:00:35.000Z,11.69
2017-10-22T05:03:06.657Z,11.72
2017-10-22T05:05:38.383Z,11.72
2017-10-22T05:08:09.731Z,11.74
2017-10-22T05:10:41.093Z,11.78
2017-10-22T05:13:13.769Z,11.79
2017-10-22T05:15:45.566Z,11.78
2017-10-22T05:18:17.839Z,11.73
2017-10-22T05:20:49.559Z,11.68
2017-10-22T05:23:20.782Z,11.62
2017-10-22T05:25:53.385Z,11.57
2017-10-22T05:28:26.596Z,11.52
2017-10-22T05:30:58.670Z,11.49
2017-10-22T05:33:29.893Z,11.47
2017-10-22T05:36:03.571Z,11.44
2017-10-22T05:38:35.351Z,11.45
2017-10-22T05:41:12.514Z,11.42
2017-10-22T05:43:47.262Z,11.43
2017-10-22T05:46:18.807Z,11.38
2017-10-22T05:51:58.731Z,11.36
2017-10-22T05:54:30.314Z,11.31
2017-10-22T05:57:01.929Z,11.31
2017-10-22T05:59:34.023Z,11.34
2017-10-22T06:02:08.654Z,11.38
2017-10-22T06:04:39.793Z,11.40
2017-10-22T06:07:11.878Z,11.52
2017-10-22T06:09:55.559Z,11.62
2017-10-22T06:12:26.690Z,11.74
2017-10-22T06:14:59.166Z,11.82
2017-10-22T06:17:40.400Z,11.88
2017-10-22T06:26:30.093Z,12.03
2017-10-22T06:29:03.461Z,12.07
2017-10-22T06:31:34.801Z,12.06
2017-10-22T06:34:07.651Z,12.10
2017-10-22T06:36:41.150Z,12.13
2017-10-22T06:39:12.440Z,12.20
2017-10-22T06:41:43.861Z,12.27
2017-10-22T06:44:16.047Z,12.31
2017-10-22T06:46:50.042Z,12.39
2017-10-22T06:49:21.476Z,12.46
2017-10-22T06:51:53.456Z,12.54
2017-10-22T06:54:24.632Z,12.59
2017-10-22T06:56:57.788Z,12.66
2017-10-22T06:59:29.134Z,12.72
2017-10-22T07:02:00.423Z,12.84
2017-10-22T07:04:32.047Z,12.90
2017-10-22T07:07:03.959Z,13.00
2017-10-22T07:09:37.589Z,13.08
2017-10-22T07:12:09.526Z,13.16
2017-10-22T07:14:40.732Z,13.23
2017-10-22T07:17:12.203Z,13.27
2017-10-22T07:19:44.376Z,13.45
2017-10-22T07:22:16.581Z,13.61
2017-10-22T07:24:47.747Z,13.63
2017-10-22T07:27:21.491Z,13.73
2017-10-22T07:29:53.994Z,13.81
2017-10-22T07:32:25.161Z,13.71
2017-10-22T07:34:56.405Z,13.61
2017-10-22T07:37:27.924Z,13.62
2017-10-22T07:39:59.090Z,13.57
2017-10-22T07:42:30.427Z,13.69
2017-10-22T07:48:08.676Z,13.77
2017-10-22T07:53:46.284Z,13.97
2017-10-22T07:56:19.503Z,14.05
2017-10-22T07:58:51.078Z,13.99
2017-10-22T08:01:24.880Z,14.20
2017-10-22T08:03:56.231Z,14.31
2017-10-22T08:06:29.388Z,14.32
2017-10-22T08:12:05.345Z,14.62
2017-10-22T08:14:42.134Z,14.65
2017-10-22T08:17:13.238Z,14.48
2017-10-22T08:19:44.645Z,14.35
2017-10-22T08:22:15.880Z,14.32
2017-10-22T08:24:47.205Z,14.16
2017-10-22T08:27:19.774Z,14.13
2017-10-22T08:29:51.635Z,14.07
2017-10-22T08:32:22.770Z,13.97
2017-10-22T08:34:54.256Z,13.90
2017-10-22T08:37:25.462Z,13.90
2017-10-22T08:39:56.608Z,13.89
2017-10-22T08:42:28.053Z,13.90
2017-10-22T08:44:59.443Z,13.88
2017-10-22T08:47:30.722Z,13.83
2017-10-22T08:50:02.991Z,13.73
2017-10-22T08:55:40.737Z,13.73
2017-10-22T08:58:12.438Z,13.73
2017-10-22T09:00:45.135Z,13.71
2017-10-22T09:03:16.915Z,13.75
2017-10-22T09:05:48.312Z,13.70
2017-10-22T09:08:20.091Z,13.74
2017-10-22T09:10:51.572Z,13.88
2017-10-22T09:13:23.512Z,14.11
2017-10-22T09:15:54.933Z,14.17
2017-10-22T09:21:10.393Z,13.82
2017-10-22T09:23:42.381Z,13.66
2017-10-22T09:26:18.429Z,13.63
2017-10-22T09:28:54.969Z,13.89
2017-10-22T09:34:08.731Z,15.01
2017-10-22T09:36:40.935Z,18.78
2017-10-22T09:39:12.865Z,21.86
2017-10-22T09:41:44.958Z,22.77
2017-10-22T09:44:17.955Z,22.20
2017-10-22T09:46:50.647Z,22.18
2017-10-22T09:49:23.009Z,22.71
2017-10-22T09:51:54.402Z,23.42
2017-10-22T09:54:28.005Z,21.78
2017-10-22T09:57:01.403Z,19.59
2017-10-22T09:59:33.008Z,18.07
2017-10-22T10:02:10.193Z,17.29
2017-10-22T10:04:41.953Z,16.73
2017-10-22T10:07:14.309Z,16.26
2017-10-22T10:15:25.773Z,14.76
2017-10-22T10:17:58.862Z,14.63
2017-10-22T10:20:31.316Z,14.49
2017-10-22T10:23:10.058Z,14.55
2017-10-22T10:25:44.201Z,14.71
2017-10-22T10:28:18.552Z,14.79
2017-10-22T10:30:49.996Z,14.85
2017-10-22T10:33:21.357Z,15.02
2017-10-22T10:35:56.603Z,15.27
2017-10-22T10:38:29.561Z,15.31
2017-10-22T10:41:14.928Z,15.25
2017-10-22T10:43:49.280Z,15.35
2017-10-22T10:46:20.827Z,15.15
2017-10-22T10:48:53.331Z,14.93
2017-10-22T10:51:25.349Z,15.01
2017-10-22T10:54:02.544Z,15.09
2017-10-22T10:56:35.850Z,15.04
2017-10-22T10:59:16.807Z,14.97
2017-10-22T11:01:51.220Z,14.81
2017-10-22T11:04:22.628Z,14.93
2017-10-22T11:06:55.168Z,14.78
2017-10-22T11:09:26.696Z,15.03
2017-10-22T11:12:03.113Z,15.47
2017-10-22T11:14:38.248Z,15.86
2017-10-22T11:17:11.176Z,17.41
2017-10-22T11:19:44.159Z,18.55
2017-10-22T11:22:21.704Z,21.30
2017-10-22T11:24:55.885Z,20.25
2017-10-22T11:27:32.330Z,18.70
2017-10-22T11:30:07.166Z,17.29
2017-10-22T11:32:41.808Z,16.53
2017-10-22T11:35:14.840Z,16.18
2017-10-22T11:37:48.731Z,16.07
2017-10-22T11:40:22.339Z,15.75
2017-10-22T11:42:57.573Z,15.76
2017-10-22T11:45:29.934Z,15.94
2017-10-22T11:48:03.875Z,16.91
2017-10-22T11:50:42.005Z,16.58
2017-10-22T11:53:16.441Z,16.23
2017-10-22T11:55:52.850Z,16.75
2017-10-22T11:58:27.556Z,16.95
2017-10-22T12:01:00.317Z,16.45
2017-10-22T12:03:32.247Z,15.90
2017-10-22T12:18:31.405Z,14.57
2017-10-22T12:21:03.673Z,14.45
2017-10-22T12:23:35.804Z,14.48
2017-10-22T12:26:07.211Z,14.44
2017-10-22T12:28:39.350Z,14.39
2017-10-22T12:31:11.400Z,14.31
2017-10-22T12:33:43.796Z,14.19
2017-10-22T12:36:15.341Z,13.95
2017-10-22T12:38:47.280Z,13.85
2017-10-22T12:41:18.749Z,13.85
2017-10-22T12:43:50.198Z,13.90
2017-10-22T12:46:22.007Z,13.97
2017-10-22T12:48:53.418Z,13.99
2017-10-22T12:51:24.786Z,13.90
2017-10-22T12:53:59.584Z,13.88
2017-10-22T13:02:45.854Z,13.60
2017-10-22T13:05:22.472Z,13.62
2017-10-22T13:07:54.326Z,13.64
2017-10-22T13:10:25.644Z,13.69
2017-10-22T13:13:01.976Z,13.77
2017-10-22T13:15:39.320Z,13.79
2017-10-22T13:18:13.031Z,13.77
2017-10-22T13:20:44.991Z,13.74
2017-10-22T13:23:20.549Z,13.71
2017-10-22T13:32:08.121Z,13.42
2017-10-22T13:34:39.488Z,13.39
2017-10-22T13:37:13.689Z,13.41
2017-10-22T13:39:45.184Z,13.42
2017-10-22T13:42:17.112Z,13.40
2017-10-22T13:44:49.407Z,13.34
2017-10-22T13:47:21.425Z,13.25
2017-10-22T13:49:54.600Z,13.18
2017-10-22T13:52:28.763Z,13.16
2017-10-22T13:55:03.613Z,13.12
2017-10-22T13:57:36.016Z,13.05
2017-10-22T14:00:07.833Z,12.99
2017-10-22T14:02:39.446Z,13.00
2017-10-22T14:05:11.510Z,12.94
2017-10-22T14:07:47.105Z,12.92
2017-10-22T14:10:18.565Z,12.94
2017-10-22T14:12:51.164Z,12.95
2017-10-22T14:15:22.795Z,13.00
2017-10-22T14:17:55.001Z,12.98
2017-10-22T14:20:32.467Z,12.95
2017-10-22T14:23:06.196Z,12.91
2017-10-22T14:25:39.383Z,12.91
2017-10-22T14:28:10.929Z,12.91
2017-10-22T14:30:42.384Z,12.86
2017-10-22T14:33:14.935Z,12.84
2017-10-22T14:35:46.993Z,12.79
2017-10-22T14:38:20.040Z,12.79
2017-10-22T14:40:56.395Z,12.78
2017-10-22T14:43:31.664Z,12.75
2017-10-22T14:46:10.331Z,12.75
2017-10-22T14:48:42.370Z,12.72
2017-10-22T14:51:31.442Z,12.71
2017-10-22T14:54:06.978Z,12.71
2017-10-22T14:56:41.104Z,12.72
2017-10-22T15:05:18.774Z,12.76
2017-10-22T15:07:50.150Z,12.77
2017-10-22T15:10:21.577Z,12.79
2017-10-22T15:12:53.306Z,12.77
2017-10-22T15:15:24.739Z,12.74
2017-10-22T15:17:56.247Z,12.73
2017-10-22T15:20:28.186Z,12.74
2017-10-22T15:22:59.540Z,12.75
2017-10-22T15:25:30.840Z,12.70
2017-10-22T15:28:03.579Z,12.72
2017-10-22T15:30:35.192Z,12.74
2017-10-22T15:33:06.570Z,12.72
2017-10-22T15:35:37.880Z,12.70
2017-10-22T15:38:09.248Z,12.71
2017-10-22T15:40:42.222Z,12.68
2017-10-22T15:43:15.406Z,12.66
2017-10-22T15:45:46.703Z,12.66
2017-10-22T15:48:19.176Z,12.67
2017-10-22T15:50:50.483Z,12.68
2017-10-22T15:53:22.148Z,12.66
2017-10-22T15:55:53.575Z,12.67
2017-10-22T15:58:24.881Z,12.59
2017-10-22T16:00:56.494Z,12.55
2017-10-22T16:03:27.898Z,12.53
2017-10-22T16:05:59.606Z,12.49
2017-10-22T16:08:30.989Z,12.45
2017-10-22T16:11:02.570Z,12.45
2017-10-22T16:13:34.263Z,12.45
2017-10-22T16:16:06.241Z,12.42
2017-10-22T16:18:37.639Z,12.41
2017-10-22T16:21:10.324Z,12.37
2017-10-22T16:23:41.623Z,12.32
2017-10-22T16:26:14.801Z,12.24
2017-10-22T16:28:46.327Z,12.19
2017-10-22T16:31:19.279Z,12.17
2017-10-22T16:33:50.908Z,12.14
2017-10-22T16:36:22.230Z,12.09
2017-10-22T16:38:54.096Z,12.09
2017-10-22T16:41:25.423Z,12.09
2017-10-22T16:43:56.754Z,12.11
2017-10-22T16:46:28.418Z,12.10
2017-10-22T16:48:59.778Z,12.11
2017-10-22T16:51:32.066Z,12.09
2017-10-22T16:54:04.878Z,12.09
2017-10-22T16:56:36.799Z,12.08
2017-10-22T16:59:08.706Z,12.08
2017-10-22T17:01:40.138Z,12.08
2017-10-22T17:04:11.685Z,12.10
2017-10-22T17:06:43.546Z,12.11
2017-10-22T17:09:17.300Z,12.11
2017-10-22T17:11:49.973Z,12.12
2017-10-22T17:14:22.652Z,12.12
2017-10-22T17:16:54.009Z,12.13
2017-10-22T17:19:26.224Z,12.14
2017-10-22T17:22:04.213Z,12.15
2017-10-22T17:24:36.030Z,12.15
2017-10-22T17:27:07.391Z,12.16
2017-10-22T17:29:39.036Z,12.16
2017-10-22T17:32:10.704Z,12.18
2017-10-22T17:34:42.184Z,12.18
2017-10-22T17:37:14.680Z,12.20
2017-10-22T17:39:46.063Z,12.18
2017-10-22T17:42:20.307Z,12.19
2017-10-22T17:44:51.946Z,12.20
2017-10-22T17:47:23.286Z,12.24
2017-10-22T17:49:54.643Z,12.22
2017-10-22T17:52:26.346Z,12.21
2017-10-22T17:54:57.754Z,12.21
2017-10-22T17:57:29.135Z,12.22
2017-10-22T18:00:01.689Z,12.23
2017-10-22T18:02:33.288Z,12.24
2017-10-22T18:05:05.023Z,12.24
2017-10-22T18:07:36.839Z,12.25
2017-10-22T18:10:14.081Z,12.27
2017-10-22T18:12:45.775Z,12.25
2017-10-22T18:15:20.216Z,12.23
2017-10-22T18:17:51.548Z,12.24
2017-10-22T18:20:39.994Z,12.18
2017-10-22T18:23:12.730Z,12.14
2017-10-22T18:25:46.844Z,12.09
2017-10-22T18:28:21.069Z,12.05
2017-10-22T18:30:52.467Z,12.01
2017-10-22T18:33:24.017Z,11.98
2017-10-22T18:35:57.193Z,11.98
2017-10-22T18:38:28.718Z,12.02
2017-10-22T18:41:00.343Z,12.03
2017-10-22T18:43:32.241Z,12.02
2017-10-22T18:46:05.762Z,12.00
2017-10-22T18:48:37.097Z,11.97
2017-10-22T18:51:08.686Z,11.90
2017-10-22T18:53:40.113Z,11.87
2017-10-22T18:56:12.768Z,11.84
2017-10-22T18:58:47.890Z,11.84
2017-10-22T19:01:21.461Z,11.82
2017-10-22T19:03:52.788Z,11.78
2017-10-22T19:06:25.826Z,11.72
2017-10-22T19:08:57.471Z,11.72
2017-10-22T19:11:32.192Z,11.72
2017-10-22T19:14:05.653Z,11.68
2017-10-22T19:16:36.947Z,11.67
2017-10-22T19:19:08.277Z,11.69
2017-10-22T19:21:40.230Z,11.68
2017-10-22T19:24:11.909Z,11.63
2017-10-22T19:26:43.248Z,11.56
2017-10-22T19:29:14.632Z,11.51
2017-10-22T19:31:46.231Z,11.48
2017-10-22T19:34:20.227Z,11.42
2017-10-22T19:36:53.999Z,11.36
2017-10-22T19:39:26.046Z,11.30
2017-10-22T19:41:57.694Z,11.25
2017-10-22T19:44:29.854Z,11.23
2017-10-22T19:47:03.641Z,11.23
2017-10-22T19:49:38.677Z,11.24
2017-10-22T19:52:11.435Z,11.21
2017-10-22T19:54:44.798Z,11.19
2017-10-22T19:57:18.994Z,11.15
2017-10-22T19:59:50.576Z,11.15
2017-10-22T20:02:26.601Z,11.14
2017-10-22T20:05:00.871Z,11.12
2017-10-22T20:07:32.721Z,11.13
2017-10-22T20:10:10.517Z,11.14
2017-10-22T20:12:42.227Z,11.18
2017-10-22T20:15:15.344Z,11.16
2017-10-22T20:17:49.098Z,11.19
2017-10-22T20:20:26.249Z,11.18
2017-10-22T20:22:59.254Z,11.18
2017-10-22T20:26:03.644Z,11.21
2017-10-22T20:28:35.625Z,11.22
2017-10-22T20:31:14.138Z,11.23
2017-10-22T20:33:45.561Z,11.24
2017-10-22T20:36:17.174Z,11.25
2017-10-22T20:38:49.654Z,11.29
2017-10-22T20:41:22.041Z,11.28
2017-10-22T20:43:53.728Z,11.29
2017-10-22T20:46:26.965Z,11.30
2017-10-22T20:48:58.248Z,11.30
2017-10-22T20:51:30.403Z,11.33
2017-10-22T20:54:04.428Z,11.34
2017-10-22T20:56:37.217Z,11.33
2017-10-22T20:59:08.517Z,11.36
2017-10-22T21:01:40.228Z,11.33
2017-10-22T21:04:11.568Z,11.32
2017-10-22T21:06:42.975Z,11.32
2017-10-22T21:09:18.474Z,11.32
2017-10-22T21:11:53.695Z,11.35
2017-10-22T21:14:27.019Z,11.39
2017-10-22T21:17:00.289Z,11.39
2017-10-22T21:19:31.649Z,11.39
2017-10-22T21:22:04.632Z,11.38
2017-10-22T21:24:36.073Z,11.39
2017-10-22T21:27:07.493Z,11.39
2017-10-22T21:29:39.084Z,11.41
2017-10-22T21:32:12.191Z,11.41
2017-10-22T21:34:44.313Z,11.42
2017-10-22T21:37:17.258Z,11.42
2017-10-22T21:39:52.528Z,11.44
2017-10-22T21:42:28.495Z,11.43
2017-10-22T21:44:59.796Z,11.44
2017-10-22T21:47:31.248Z,11.45
2017-10-22T21:50:03.517Z,11.48
2017-10-22T21:52:35.236Z,11.48
2017-10-22T21:55:12.524Z,11.46
2017-10-22T21:57:47.543Z,11.49
2017-10-22T22:00:39.650Z,11.52
2017-10-22T22:03:22.913Z,11.49
2017-10-22T22:06:04.703Z,11.51
2017-10-22T22:08:38.530Z,11.53
2017-10-22T22:11:13.734Z,11.54
2017-10-22T22:13:45.447Z,11.55
2017-10-22T22:16:19.575Z,11.56
2017-10-22T22:18:55.157Z,11.56
2017-10-22T22:21:28.141Z,11.54
2017-10-22T22:23:59.757Z,11.53
2017-10-22T22:26:31.188Z,11.52
2017-10-22T22:29:07.940Z,11.52
2017-10-22T22:31:42.125Z,11.54
2017-10-22T22:47:15.040Z,11.67
2017-10-22T22:49:47.324Z,11.61
2017-10-22T22:52:31.957Z,11.54
2017-10-22T22:55:06.812Z,11.51
2017-10-22T22:57:44.735Z,11.51
2017-10-22T23:00:21.101Z,11.49
2017-10-22T23:02:56.363Z,11.47
2017-10-22T23:05:31.243Z,11.46
2017-10-22T23:08:16.213Z,11.47
2017-10-22T23:10:49.328Z,11.48
2017-10-22T23:13:25.902Z,11.52
2017-10-22T23:15:57.419Z,11.53
2017-10-22T23:18:34.243Z,11.53
2017-10-22T23:21:07.486Z,11.54
2017-10-22T23:23:44.119Z,11.56
2017-10-22T23:26:22.353Z,11.54
2017-10-22T23:28:55.577Z,11.55
2017-10-22T23:31:29.835Z,11.56
2017-10-22T23:34:05.727Z,11.56
2017-10-22T23:36:43.970Z,11.57
2017-10-22T23:39:19.070Z,11.58
2017-10-22T23:41:54.340Z,11.57
2017-10-22T23:44:28.347Z,11.57
2017-10-22T23:47:01.773Z,11.57
2017-10-22T23:49:35.509Z,11.60
2017-10-22T23:52:14.275Z,11.58
2017-10-22T23:54:47.847Z,11.54
2017-10-22T23:57:22.715Z,11.52
2017-10-22T23:59:57.429Z,11.50
